KHPN

Westchester County Airport

White Plains, New York, USA
KHPN 231134Z 2312/2412 14012KT 3SM -SHRA BR OVC006 FM231600 15011G17KT 6SM BR VCSH FEW006 BKN010 OVC020 FM231900 14012G18KT 6SM BR VCSH SCT012 OVC020 FM240000 12009KT 5SM BR VCSH OVC015 AMD NOT SKED
Issued Valid From Valid To
Jul-23 @ 11:34 UTC
(2 hours ago)
Jul-23 @ 12:00 UTC
(an hour ago)
Jul-24 @ 12:00 UTC
(in 23 hours)
Jul-23 @ 12:00 to Jul-23 @ 16:00
KHPN 231134Z 2312/2412 14012KT 3SM -SHRA BR OVC006
Wind Visibility Clouds Conditions
140° at 12 knots 3 miles
  • Overcast at 600' AGL
  • Light Rain
  • Mist
From Jul-23 @ 16:00 to Jul-23 @ 19:00
FM231600 15011G17KT 6SM BR VCSH FEW006 BKN010 OVC020
Wind Visibility Clouds Conditions
150° at 11 knots
 Gusting to 17 knots
6 miles
  • Few at 600' AGL
  • Broken at 1,000' AGL
  • Overcast at 2,000' AGL
  • Mist
From Jul-23 @ 19:00 to Jul-24 @ 00:00
FM231900 14012G18KT 6SM BR VCSH SCT012 OVC020
Wind Visibility Clouds Conditions
140° at 12 knots
 Gusting to 18 knots
6 miles
  • Scattered at 1,200' AGL
  • Overcast at 2,000' AGL
  • Mist
From Jul-24 @ 00:00 to Jul-24 @ 12:00
FM240000 12009KT 5SM BR VCSH OVC015 AMD NOT SKED
Wind Visibility Clouds Conditions
120° at 9 knots 5 miles
  • Overcast at 1,500' AGL
  • Mist
KHPN 231134Z 2312/2412 14012KT 3SM -SHRA BR OVC006 FM231600 15011G17KT 6SM BR VCSH FEW006 BKN010 OVC020 FM231900 14012G18KT 6SM BR VCSH SCT012 OVC020 FM240000 12009KT 5SM BR VCSH OVC015 AMD NOT SKED
Issued Jul-23 @ 11:34 UTC
(2 hours ago)
Valid From Jul-23 @ 12:00 UTC
(an hour ago)
Valid To Jul-24 @ 12:00 UTC
(in 23 hours)
Jul-23 @ 12:00 - Jul-23 @ 16:00
Wind Visibility
140° at 12 knots 3 miles
Clouds
  • Overcast at 600' AGL
Conditions
  • Light Rain
  • Mist
From Jul-23 @ 16:00 - Jul-23 @ 19:00
Wind Visibility
150° at 11 knots
 Gusting to 17 knots
6 miles
Clouds
  • Few at 600' AGL
  • Broken at 1,000' AGL
  • Overcast at 2,000' AGL
Conditions
  • Mist
From Jul-23 @ 19:00 - Jul-24 @ 00:00
Wind Visibility
140° at 12 knots
 Gusting to 18 knots
6 miles
Clouds
  • Scattered at 1,200' AGL
  • Overcast at 2,000' AGL
Conditions
  • Mist
From Jul-24 @ 00:00 - Jul-24 @ 12:00
Wind Visibility
120° at 9 knots 5 miles
Clouds
  • Overcast at 1,500' AGL
Conditions
  • Mist